createdAt,value
2022-12-03T00:01:17.240Z,38.63
2022-12-03T00:03:44.158Z,39.77
2022-12-03T00:06:10.792Z,40.57
2022-12-03T00:08:37.416Z,41.07
2022-12-03T00:11:04.014Z,38.80
2022-12-03T00:13:30.583Z,38.87
2022-12-03T00:15:57.208Z,39.63
2022-12-03T00:18:23.927Z,38.20
2022-12-03T00:20:50.503Z,36.37
2022-12-03T00:23:17.062Z,40.47
2022-12-03T00:25:43.744Z,40.80
2022-12-03T00:28:10.477Z,36.43
2022-12-03T00:30:37.063Z,43.53
2022-12-03T00:33:03.740Z,38.90
2022-12-03T00:35:30.435Z,40.40
2022-12-03T00:37:57.266Z,36.53
2022-12-03T00:40:23.854Z,39.60
2022-12-03T00:42:50.737Z,42.30
2022-12-03T00:45:20.058Z,37.53
2022-12-03T00:47:46.567Z,38.97
2022-12-03T00:50:13.329Z,38.87
2022-12-03T00:52:39.928Z,39.37
2022-12-03T00:55:06.799Z,38.60
2022-12-03T00:57:33.382Z,40.07
2022-12-03T01:00:00.020Z,38.57
2022-12-03T01:02:26.647Z,41.27
2022-12-03T01:04:53.587Z,39.03
2022-12-03T01:07:20.480Z,41.13
2022-12-03T01:09:47.106Z,41.13
2022-12-03T01:12:13.751Z,41.67
2022-12-03T01:14:40.787Z,37.77
2022-12-03T01:17:07.424Z,41.00
2022-12-03T01:19:35.550Z,42.43
2022-12-03T01:22:02.471Z,42.47
2022-12-03T01:24:29.016Z,38.77
2022-12-03T01:26:56.960Z,39.97
2022-12-03T01:29:23.811Z,38.60
2022-12-03T01:32:09.063Z,40.47
2022-12-03T01:34:35.583Z,36.77
2022-12-03T01:37:02.100Z,40.43
2022-12-03T01:39:28.820Z,37.73
2022-12-03T01:41:55.496Z,38.17
2022-12-03T01:44:27.303Z,37.50
2022-12-03T01:46:54.901Z,38.15
2022-12-03T01:49:29.407Z,38.77
2022-12-03T01:51:56.412Z,38.73
2022-12-03T01:54:26.169Z,40.70
2022-12-03T01:56:53.575Z,38.27
2022-12-03T01:59:23.268Z,41.97
2022-12-03T02:01:50.096Z,38.10
2022-12-03T02:04:17.421Z,35.40
2022-12-03T02:06:44.688Z,38.83
2022-12-03T02:09:12.015Z,37.77
2022-12-03T02:11:45.563Z,38.13
2022-12-03T02:14:13.675Z,42.07
2022-12-03T02:16:41.282Z,41.43
2022-12-03T02:19:12.604Z,39.43
2022-12-03T02:21:50.329Z,38.67
2022-12-03T02:24:46.170Z,37.07
2022-12-03T02:27:12.856Z,37.30
2022-12-03T02:29:39.455Z,38.23
2022-12-03T02:32:06.044Z,36.40
2022-12-03T02:34:33.664Z,36.40
2022-12-03T02:37:00.318Z,39.50
2022-12-03T02:39:27.041Z,39.20
2022-12-03T02:42:11.985Z,38.87
2022-12-03T02:44:38.863Z,37.83
2022-12-03T02:47:05.468Z,37.60
2022-12-03T02:49:32.341Z,41.83
2022-12-03T02:51:58.895Z,35.80
2022-12-03T02:54:25.646Z,36.80
2022-12-03T02:56:52.317Z,39.43
2022-12-03T02:59:18.902Z,39.30
2022-12-03T03:01:45.632Z,41.47
2022-12-03T03:04:12.211Z,36.47
2022-12-03T03:06:38.894Z,34.07
2022-12-03T03:09:05.434Z,40.97
2022-12-03T03:11:32.065Z,39.20
2022-12-03T03:13:58.680Z,40.07
2022-12-03T03:16:25.304Z,38.90
2022-12-03T03:18:52.038Z,37.37
2022-12-03T03:21:18.769Z,41.27
2022-12-03T03:23:45.499Z,41.73
2022-12-03T03:26:13.344Z,37.60
2022-12-03T03:28:43.389Z,39.93
2022-12-03T03:31:11.361Z,37.57
2022-12-03T03:33:39.501Z,36.80
2022-12-03T03:36:06.959Z,40.73
2022-12-03T03:38:34.086Z,39.97
2022-12-03T03:41:03.011Z,37.67
2022-12-03T03:43:30.122Z,38.77
2022-12-03T03:45:57.135Z,35.80
2022-12-03T03:48:23.858Z,40.70
2022-12-03T03:50:51.014Z,38.73
2022-12-03T03:53:18.576Z,36.07
2022-12-03T03:55:45.750Z,40.83
2022-12-03T03:58:12.497Z,39.47
2022-12-03T04:00:39.140Z,43.10
2022-12-03T04:03:06.493Z,41.13
2022-12-03T04:05:33.238Z,36.77
2022-12-03T04:08:00.005Z,42.57
2022-12-03T04:10:45.134Z,38.73
2022-12-03T04:13:11.730Z,36.77
2022-12-03T04:15:38.274Z,38.10
2022-12-03T04:18:23.604Z,38.83
2022-12-03T04:20:50.194Z,38.43
2022-12-03T04:23:16.782Z,38.37
2022-12-03T04:26:01.985Z,36.23
2022-12-03T04:28:47.135Z,39.57
2022-12-03T04:31:32.423Z,38.53
2022-12-03T04:34:17.631Z,36.10
2022-12-03T04:36:44.176Z,37.13
2022-12-03T04:39:10.798Z,34.83
2022-12-03T04:41:37.420Z,37.47
2022-12-03T04:44:22.563Z,42.10
2022-12-03T04:46:49.157Z,44.77
2022-12-03T04:49:15.812Z,38.13
2022-12-03T04:51:42.413Z,38.57
2022-12-03T04:54:08.941Z,37.17
2022-12-03T04:56:35.535Z,40.13
2022-12-03T04:59:02.105Z,36.53
2022-12-03T05:01:28.852Z,39.43
2022-12-03T05:03:55.570Z,37.33
2022-12-03T05:06:22.207Z,38.23
2022-12-03T05:08:48.884Z,34.47
2022-12-03T05:11:15.471Z,36.70
2022-12-03T05:13:43.202Z,37.50
2022-12-03T05:16:10.183Z,33.53
2022-12-03T05:18:36.903Z,33.27
2022-12-03T05:21:03.555Z,30.53
2022-12-03T05:23:30.197Z,29.37
2022-12-03T05:25:56.857Z,32.40
2022-12-03T05:28:24.435Z,33.90
2022-12-03T05:30:51.621Z,34.40
2022-12-03T05:33:18.269Z,33.23
2022-12-03T05:35:44.978Z,31.27
2022-12-03T05:38:11.673Z,33.00
2022-12-03T05:40:38.522Z,31.93
2022-12-03T05:43:05.265Z,33.90
2022-12-03T05:45:36.563Z,33.20
2022-12-03T05:48:04.592Z,34.25
2022-12-03T05:50:33.183Z,34.70
2022-12-03T05:53:00.155Z,35.80
2022-12-03T05:55:27.225Z,33.07
2022-12-03T05:57:53.879Z,34.47
2022-12-03T06:00:22.324Z,34.57
2022-12-03T06:02:48.913Z,32.13
2022-12-03T06:05:17.140Z,33.10
2022-12-03T06:07:43.797Z,34.73
2022-12-03T06:10:11.713Z,33.40
2022-12-03T06:12:38.277Z,35.90
2022-12-03T06:15:05.149Z,37.70
2022-12-03T06:17:31.889Z,36.37
2022-12-03T06:19:58.706Z,34.07
2022-12-03T06:22:25.462Z,36.17
2022-12-03T06:24:52.666Z,38.17
2022-12-03T06:27:19.604Z,39.03
2022-12-03T06:29:46.243Z,40.50
2022-12-03T06:32:12.830Z,41.77
2022-12-03T06:34:39.567Z,39.50
2022-12-03T06:37:06.133Z,41.07
2022-12-03T06:39:32.868Z,40.33
2022-12-03T06:41:59.439Z,43.10
2022-12-03T06:44:26.027Z,45.83
2022-12-03T06:46:53.041Z,42.77
2022-12-03T07:03:31.542Z,46.00
2022-12-03T07:05:58.025Z,45.10
2022-12-03T07:08:24.541Z,42.50
2022-12-03T07:10:50.969Z,41.87
2022-12-03T07:13:17.417Z,39.70
2022-12-03T07:15:43.877Z,40.13
2022-12-03T07:18:10.291Z,41.53
2022-12-03T07:20:36.755Z,40.10
2022-12-03T07:23:03.176Z,40.83
2022-12-03T07:25:29.783Z,37.87
2022-12-03T07:27:56.368Z,39.73
2022-12-03T07:30:24.364Z,41.43
2022-12-03T07:32:50.815Z,45.77
2022-12-03T07:35:17.417Z,42.97
2022-12-03T07:37:43.818Z,45.47
2022-12-03T07:40:10.562Z,43.60
2022-12-03T07:42:37.088Z,51.53
2022-12-03T07:45:03.995Z,40.73
2022-12-03T07:47:30.449Z,45.27
2022-12-03T07:49:56.841Z,43.33
2022-12-03T07:52:23.319Z,45.63
2022-12-03T07:54:49.733Z,42.60
2022-12-03T07:57:16.206Z,46.87
2022-12-03T07:59:42.651Z,41.20
2022-12-03T08:02:09.353Z,45.07
2022-12-03T08:04:35.997Z,44.10
2022-12-03T08:07:02.502Z,47.67
2022-12-03T08:09:28.995Z,46.93
2022-12-03T08:11:55.533Z,50.03
2022-12-03T08:14:22.269Z,49.07
2022-12-03T08:16:48.961Z,49.53
2022-12-03T08:19:16.442Z,45.70
2022-12-03T08:21:43.149Z,46.43
2022-12-03T08:24:17.222Z,41.73
2022-12-03T08:26:46.876Z,46.00
2022-12-03T08:29:18.254Z,44.40
2022-12-03T08:31:49.014Z,44.45
2022-12-03T08:34:20.191Z,47.57
2022-12-03T08:36:51.357Z,46.20
2022-12-03T08:39:17.957Z,48.75
2022-12-03T08:42:02.987Z,46.53
2022-12-03T08:44:36.422Z,45.40
2022-12-03T08:47:08.866Z,43.93
2022-12-03T08:52:18.773Z,47.58
2022-12-03T08:54:49.916Z,42.87
2022-12-03T08:57:25.127Z,42.45
2022-12-03T08:59:54.515Z,46.70
2022-12-03T09:05:28.397Z,44.43
2022-12-03T09:07:55.075Z,42.40
2022-12-03T09:10:21.702Z,42.50
2022-12-03T09:12:48.266Z,42.87
2022-12-03T09:15:14.807Z,40.63
2022-12-03T09:17:41.338Z,43.00
2022-12-03T09:20:08.121Z,44.80
2022-12-03T09:22:34.734Z,41.20
2022-12-03T09:25:01.298Z,42.97
2022-12-03T09:27:27.739Z,42.00
2022-12-03T09:29:54.126Z,45.47
2022-12-03T09:32:20.665Z,43.80
2022-12-03T09:34:47.291Z,42.07
2022-12-03T09:37:13.769Z,46.43
2022-12-03T09:39:40.203Z,44.63
2022-12-03T09:42:06.831Z,46.10
2022-12-03T09:44:34.480Z,45.73
2022-12-03T09:47:07.438Z,46.73
2022-12-03T09:49:35.691Z,41.90
2022-12-03T09:52:02.841Z,46.37
2022-12-03T09:54:29.812Z,51.00
2022-12-03T09:56:57.069Z,46.20
2022-12-03T09:59:25.896Z,44.93
2022-12-03T10:01:56.124Z,50.80
2022-12-03T10:04:22.656Z,46.00
2022-12-03T10:06:49.223Z,48.60
2022-12-03T10:09:20.964Z,48.33
2022-12-03T10:14:14.543Z,44.37
2022-12-03T10:16:41.388Z,46.97
2022-12-03T10:19:15.190Z,42.93
2022-12-03T10:21:50.977Z,46.67
2022-12-03T10:24:24.254Z,45.83
2022-12-03T10:26:51.796Z,50.90
2022-12-03T10:29:19.726Z,50.93
2022-12-03T10:31:50.096Z,49.40
2022-12-03T10:37:10.173Z,50.60
2022-12-03T10:39:56.354Z,47.87
2022-12-03T10:42:23.492Z,44.93
2022-12-03T10:44:53.867Z,45.70
2022-12-03T10:47:22.667Z,47.73
2022-12-03T10:50:01.046Z,49.40
2022-12-03T10:52:27.629Z,54.43
2022-12-03T10:54:57.976Z,50.07
2022-12-03T10:57:24.734Z,49.10
2022-12-03T10:59:51.453Z,54.40
2022-12-03T11:05:04.238Z,48.70
2022-12-03T11:08:04.931Z,48.17
2022-12-03T11:13:47.244Z,45.67
2022-12-03T11:16:17.696Z,48.70
2022-12-03T11:18:44.259Z,55.90
2022-12-03T11:21:15.261Z,53.13
2022-12-03T11:23:44.882Z,45.25
2022-12-03T11:29:17.709Z,51.13
2022-12-03T11:34:49.442Z,48.30
2022-12-03T11:37:16.394Z,47.77
2022-12-03T11:39:52.969Z,51.13
2022-12-03T11:47:57.925Z,65.73
2022-12-03T11:50:29.050Z,47.60
2022-12-03T11:53:12.344Z,49.67
2022-12-03T11:55:44.647Z,42.83
2022-12-03T11:58:17.190Z,45.27
2022-12-03T12:01:06.265Z,46.47
2022-12-03T12:03:39.660Z,44.80
2022-12-03T12:06:07.672Z,43.50
2022-12-03T12:08:34.968Z,43.63
2022-12-03T12:11:02.121Z,44.67
2022-12-03T12:13:31.846Z,47.20
2022-12-03T12:16:08.502Z,44.10
2022-12-03T12:18:35.100Z,46.80
2022-12-03T12:21:25.508Z,47.00
2022-12-03T12:23:52.235Z,46.80
2022-12-03T12:26:18.855Z,47.53
2022-12-03T12:29:03.151Z,47.73
2022-12-03T12:31:29.799Z,47.47
2022-12-03T12:36:37.073Z,40.70
2022-12-03T12:39:08.347Z,42.30
2022-12-03T12:41:35.011Z,42.42
2022-12-03T12:44:01.667Z,43.97
2022-12-03T12:49:15.479Z,41.27
2022-12-03T12:52:10.103Z,45.70
2022-12-03T12:54:37.850Z,40.33
2022-12-03T12:57:10.573Z,42.73
2022-12-03T12:59:37.120Z,40.83
2022-12-03T13:02:23.673Z,40.20
2022-12-03T13:05:17.723Z,38.87
2022-12-03T13:07:44.733Z,41.70
2022-12-03T13:10:31.601Z,39.17
2022-12-03T13:12:58.667Z,35.33
2022-12-03T13:18:47.535Z,38.93
2022-12-03T13:21:14.172Z,42.92
2022-12-03T13:26:34.507Z,36.93
2022-12-03T13:29:15.305Z,45.27
2022-12-03T13:31:44.322Z,43.63
2022-12-03T13:34:19.095Z,47.97
2022-12-03T13:36:50.541Z,44.87
2022-12-03T13:39:27.062Z,41.37
2022-12-03T13:44:48.937Z,38.90
2022-12-03T13:50:46.237Z,40.87
2022-12-03T13:53:24.597Z,38.93
2022-12-03T13:55:56.962Z,38.80
2022-12-03T13:58:23.597Z,42.27
2022-12-03T14:00:50.201Z,42.63
2022-12-03T14:03:16.881Z,41.07
2022-12-03T14:05:43.482Z,40.50
2022-12-03T14:08:10.139Z,40.97
2022-12-03T14:10:36.758Z,44.13
2022-12-03T14:13:03.440Z,45.93
2022-12-03T14:15:29.887Z,42.83
2022-12-03T14:18:11.701Z,47.50
2022-12-03T14:21:02.167Z,47.17
2022-12-03T14:23:28.611Z,49.30
2022-12-03T14:26:13.136Z,59.00
2022-12-03T14:28:39.661Z,132.93
2022-12-03T14:31:06.176Z,137.10
2022-12-03T14:33:32.653Z,52.33
2022-12-03T14:35:59.233Z,47.33
2022-12-03T14:38:26.655Z,64.23
2022-12-03T14:40:53.085Z,42.10
2022-12-03T14:43:40.173Z,42.90
2022-12-03T14:46:14.210Z,42.73
2022-12-03T14:48:40.674Z,48.47
2022-12-03T14:51:07.225Z,41.60
2022-12-03T14:53:33.744Z,40.57
2022-12-03T14:56:13.222Z,45.13
2022-12-03T14:58:39.755Z,37.23
2022-12-03T15:01:06.430Z,40.37
2022-12-03T15:03:32.970Z,37.93
2022-12-03T15:06:00.764Z,38.33
2022-12-03T15:08:28.148Z,42.47
2022-12-03T15:11:03.377Z,41.40
2022-12-03T15:16:10.574Z,43.63
2022-12-03T15:21:55.105Z,43.77
2022-12-03T15:24:22.687Z,52.23
2022-12-03T15:26:49.730Z,45.33
2022-12-03T15:29:20.189Z,44.37
2022-12-03T15:31:47.780Z,57.93
2022-12-03T15:34:29.551Z,57.00
2022-12-03T15:37:01.069Z,49.70
2022-12-03T15:42:11.542Z,47.17
2022-12-03T15:44:38.112Z,54.67
2022-12-03T15:47:04.653Z,50.10
2022-12-03T15:49:31.460Z,54.57
2022-12-03T15:54:47.518Z,48.87
2022-12-03T15:59:56.243Z,42.33
2022-12-03T16:02:23.052Z,45.33
2022-12-03T16:04:50.802Z,45.57
2022-12-03T16:07:17.202Z,55.20
2022-12-03T16:09:54.998Z,51.80
2022-12-03T16:15:02.041Z,59.10
2022-12-03T16:17:29.747Z,60.80
2022-12-03T16:19:59.868Z,64.10
2022-12-03T16:22:26.353Z,65.00
2022-12-03T16:25:26.543Z,54.00
2022-12-03T16:28:02.230Z,49.67
2022-12-03T16:33:27.300Z,41.43
2022-12-03T16:36:15.715Z,41.77
2022-12-03T16:41:30.292Z,41.73
2022-12-03T16:44:04.849Z,45.77
2022-12-03T16:49:18.724Z,36.30
2022-12-03T16:54:34.991Z,34.67
2022-12-03T16:57:07.084Z,37.00
2022-12-03T16:59:33.687Z,34.10
2022-12-03T17:02:00.261Z,35.50
2022-12-03T17:04:26.837Z,33.03
2022-12-03T17:06:53.459Z,34.97
2022-12-03T17:09:19.981Z,35.13
2022-12-03T17:11:46.583Z,32.67
2022-12-03T17:14:13.165Z,36.20
2022-12-03T17:16:39.643Z,34.03
2022-12-03T17:19:06.315Z,32.70
2022-12-03T17:21:35.067Z,31.87
2022-12-03T17:24:01.781Z,29.47
2022-12-03T17:26:28.228Z,32.57
2022-12-03T17:28:54.853Z,29.87
2022-12-03T17:31:21.498Z,32.00
2022-12-03T17:33:48.085Z,32.10
2022-12-03T17:36:14.577Z,34.93
2022-12-03T17:38:41.179Z,36.00
2022-12-03T17:41:07.731Z,33.03
2022-12-03T17:43:34.181Z,33.27
2022-12-03T17:46:00.795Z,30.77
2022-12-03T17:48:36.849Z,35.17
2022-12-03T17:51:03.699Z,33.77
2022-12-03T17:53:30.240Z,36.07
2022-12-03T17:55:56.810Z,35.90
2022-12-03T17:58:23.342Z,33.43
2022-12-03T18:00:49.878Z,34.30
2022-12-03T18:03:16.320Z,38.50
2022-12-03T18:05:42.857Z,34.67
2022-12-03T18:08:09.473Z,39.27
2022-12-03T18:10:35.932Z,33.73
2022-12-03T18:13:02.590Z,36.60
2022-12-03T18:15:29.365Z,36.90
2022-12-03T18:17:55.785Z,36.47
2022-12-03T18:20:22.226Z,37.50
2022-12-03T18:22:48.826Z,40.30
2022-12-03T18:25:15.438Z,37.67
2022-12-03T18:27:41.937Z,39.00
2022-12-03T18:30:08.654Z,39.93
2022-12-03T18:32:35.125Z,42.07
2022-12-03T18:35:01.606Z,43.33
2022-12-03T18:37:29.389Z,41.27
2022-12-03T18:39:56.619Z,41.73
2022-12-03T18:42:23.483Z,41.67
2022-12-03T18:44:51.436Z,42.60
2022-12-03T18:47:19.610Z,44.63
2022-12-03T18:49:46.344Z,47.03
2022-12-03T18:52:13.364Z,43.87
2022-12-03T18:54:39.924Z,51.90
2022-12-03T18:57:06.355Z,47.57
2022-12-03T18:59:32.880Z,52.10
2022-12-03T19:01:59.446Z,55.60
2022-12-03T19:04:25.966Z,50.43
2022-12-03T19:06:52.534Z,56.20
2022-12-03T19:09:19.012Z,53.13
2022-12-03T19:11:45.492Z,50.30
2022-12-03T19:14:12.075Z,51.10
2022-12-03T19:16:39.480Z,51.00
2022-12-03T19:19:06.872Z,50.03
2022-12-03T19:21:33.968Z,50.13
2022-12-03T19:24:24.200Z,50.23
2022-12-03T19:26:47.448Z,49.47
2022-12-03T19:29:14.212Z,44.63
2022-12-03T19:31:40.760Z,48.00
2022-12-03T19:34:07.367Z,48.13
2022-12-03T19:36:33.905Z,46.43
2022-12-03T19:39:01.357Z,44.50
2022-12-03T19:41:30.543Z,43.97
2022-12-03T19:43:57.839Z,45.17
2022-12-03T19:46:25.367Z,47.30
2022-12-03T19:48:51.940Z,47.13
2022-12-03T19:51:35.316Z,43.60
2022-12-03T19:54:03.459Z,42.67
2022-12-03T19:56:33.144Z,40.27
2022-12-03T19:58:59.932Z,38.43
2022-12-03T20:01:28.488Z,41.20
2022-12-03T20:03:55.879Z,39.23
2022-12-03T20:06:24.215Z,39.27
2022-12-03T20:08:51.525Z,37.80
2022-12-03T20:11:19.205Z,34.83
2022-12-03T20:13:45.845Z,37.83
2022-12-03T20:16:13.493Z,37.10
2022-12-03T20:18:41.084Z,35.57
2022-12-03T20:21:08.542Z,34.50
2022-12-03T20:23:35.094Z,31.30
2022-12-03T20:26:01.620Z,34.80
2022-12-03T20:28:28.631Z,35.50
2022-12-03T20:31:02.320Z,35.37
2022-12-03T20:33:28.912Z,30.90
2022-12-03T20:35:56.261Z,34.27
2022-12-03T20:38:23.200Z,34.20
2022-12-03T20:40:50.038Z,31.37
2022-12-03T20:43:16.595Z,29.17
2022-12-03T20:45:43.248Z,30.03
2022-12-03T20:48:09.891Z,32.33
2022-12-03T20:50:39.575Z,30.60
2022-12-03T20:53:23.700Z,30.40
2022-12-03T20:55:57.649Z,31.47
2022-12-03T20:58:24.108Z,32.93
2022-12-03T21:00:50.759Z,32.70
2022-12-03T21:03:17.352Z,29.23
2022-12-03T21:05:45.023Z,31.07
2022-12-03T21:08:12.029Z,28.83
2022-12-03T21:10:48.470Z,32.90
2022-12-03T21:13:15.672Z,30.97
2022-12-03T21:15:42.491Z,29.10
2022-12-03T21:18:10.354Z,27.80
2022-12-03T21:20:47.220Z,30.90
2022-12-03T21:23:14.580Z,28.77
2022-12-03T21:25:41.173Z,27.73
2022-12-03T21:28:08.865Z,31.93
2022-12-03T21:30:37.849Z,32.43
2022-12-03T21:33:04.417Z,30.63
2022-12-03T21:35:31.072Z,30.07
2022-12-03T21:37:57.629Z,29.07
2022-12-03T21:40:24.081Z,30.83
2022-12-03T21:42:50.521Z,30.47
2022-12-03T21:45:17.092Z,26.20
2022-12-03T21:47:46.636Z,29.10
2022-12-03T21:50:13.166Z,30.73
2022-12-03T21:52:39.650Z,33.97
2022-12-03T21:55:06.502Z,31.13
2022-12-03T21:57:35.096Z,30.23
2022-12-03T22:00:02.248Z,30.13
2022-12-03T22:02:28.783Z,28.10
2022-12-03T22:04:55.265Z,29.00
2022-12-03T22:07:21.760Z,30.63
2022-12-03T22:09:48.373Z,29.97
2022-12-03T22:12:14.956Z,32.30
2022-12-03T22:14:41.578Z,30.43
2022-12-03T22:17:08.057Z,30.67
2022-12-03T22:19:34.558Z,28.43
2022-12-03T22:22:01.065Z,28.00
2022-12-03T22:24:27.634Z,30.77
2022-12-03T22:26:54.951Z,27.93
2022-12-03T22:29:21.600Z,27.73
2022-12-03T22:31:48.124Z,27.10
2022-12-03T22:34:14.673Z,26.90
2022-12-03T22:36:41.197Z,28.77
2022-12-03T22:39:07.663Z,27.37
2022-12-03T22:41:34.159Z,23.90
2022-12-03T22:44:00.709Z,24.87
2022-12-03T22:46:27.221Z,26.80
2022-12-03T22:48:53.760Z,24.57
2022-12-03T22:51:22.271Z,23.10
2022-12-03T22:53:53.266Z,25.03
2022-12-03T22:56:19.713Z,26.45
2022-12-03T22:58:46.172Z,22.40
2022-12-03T23:01:20.529Z,22.33
2022-12-03T23:03:47.035Z,25.23
2022-12-03T23:06:13.575Z,21.23
2022-12-03T23:08:40.037Z,21.97
2022-12-03T23:11:06.541Z,22.03
2022-12-03T23:13:33.010Z,21.13
2022-12-03T23:15:59.768Z,24.57
2022-12-03T23:18:26.340Z,21.13
2022-12-03T23:20:54.362Z,23.93
2022-12-03T23:23:22.024Z,24.60
2022-12-03T23:26:05.641Z,21.20
2022-12-03T23:28:32.783Z,21.63
2022-12-03T23:31:00.793Z,21.23
2022-12-03T23:33:27.474Z,23.13
2022-12-03T23:35:54.020Z,19.43
2022-12-03T23:38:20.814Z,20.80
2022-12-03T23:40:48.382Z,21.40
2022-12-03T23:43:15.169Z,20.97
2022-12-03T23:45:41.637Z,22.80
2022-12-03T23:48:08.053Z,22.47
2022-12-03T23:50:35.018Z,20.83
2022-12-03T23:53:01.537Z,23.33
2022-12-03T23:55:28.023Z,21.93
2022-12-03T23:57:54.491Z,23.67
